sensor_id;sensor_type;location;lat;lon;timestamp;P1;durP1;ratioP1;P2;durP2;ratioP2
16025;SDS011;8117;52.488;13.460;2022-10-17T00:23:20;4.90;;;3.23;;
16025;SDS011;8117;52.488;13.460;2022-10-17T00:25:56;4.00;;;3.00;;
16025;SDS011;8117;52.488;13.460;2022-10-17T00:28:26;5.80;;;3.23;;
16025;SDS011;8117;52.488;13.460;2022-10-17T00:30:56;4.13;;;3.57;;
16025;SDS011;8117;52.488;13.460;2022-10-17T00:33:30;8.30;;;3.77;;
16025;SDS011;8117;52.488;13.460;2022-10-17T00:36:01;4.63;;;3.27;;
16025;SDS011;8117;52.488;13.460;2022-10-17T00:38:35;6.97;;;3.90;;
16025;SDS011;8117;52.488;13.460;2022-10-17T00:41:10;6.13;;;3.77;;
16025;SDS011;8117;52.488;13.460;2022-10-17T00:43:49;3.33;;;3.03;;
16025;SDS011;8117;52.488;13.460;2022-10-17T00:46:22;5.30;;;3.20;;
16025;SDS011;8117;52.488;13.460;2022-10-17T00:48:53;5.70;;;3.77;;
16025;SDS011;8117;52.488;13.460;2022-10-17T00:51:26;7.43;;;3.40;;
16025;SDS011;8117;52.488;13.460;2022-10-17T00:54:00;4.47;;;3.30;;
16025;SDS011;8117;52.488;13.460;2022-10-17T00:56:32;5.53;;;3.87;;
16025;SDS011;8117;52.488;13.460;2022-10-17T00:58:59;5.80;;;3.30;;
16025;SDS011;8117;52.488;13.460;2022-10-17T01:01:29;5.33;;;3.27;;
16025;SDS011;8117;52.488;13.460;2022-10-17T01:03:56;4.63;;;3.00;;
16025;SDS011;8117;52.488;13.460;2022-10-17T01:06:25;4.43;;;2.80;;
16025;SDS011;8117;52.488;13.460;2022-10-17T01:08:52;5.47;;;3.10;;
16025;SDS011;8117;52.488;13.460;2022-10-17T01:11:29;4.40;;;2.60;;
16025;SDS011;8117;52.488;13.460;2022-10-17T01:14:01;5.07;;;2.83;;
16025;SDS011;8117;52.488;13.460;2022-10-17T01:16:55;5.20;;;2.80;;
16025;SDS011;8117;52.488;13.460;2022-10-17T01:19:32;3.43;;;3.07;;
16025;SDS011;8117;52.488;13.460;2022-10-17T01:22:02;4.17;;;2.50;;
16025;SDS011;8117;52.488;13.460;2022-10-17T01:24:40;7.67;;;4.10;;
16025;SDS011;8117;52.488;13.460;2022-10-17T01:27:40;4.80;;;2.67;;
16025;SDS011;8117;52.488;13.460;2022-10-17T01:30:27;3.00;;;2.53;;
16025;SDS011;8117;52.488;13.460;2022-10-17T01:33:19;2.50;;;1.93;;
16025;SDS011;8117;52.488;13.460;2022-10-17T01:35:56;3.17;;;2.27;;
16025;SDS011;8117;52.488;13.460;2022-10-17T01:38:32;2.83;;;1.90;;
16025;SDS011;8117;52.488;13.460;2022-10-17T01:41:01;4.67;;;2.77;;
16025;SDS011;8117;52.488;13.460;2022-10-17T01:43:33;3.47;;;2.57;;
16025;SDS011;8117;52.488;13.460;2022-10-17T01:46:09;2.67;;;2.47;;
16025;SDS011;8117;52.488;13.460;2022-10-17T01:48:39;2.83;;;2.23;;
16025;SDS011;8117;52.488;13.460;2022-10-17T01:51:10;3.10;;;2.10;;
16025;SDS011;8117;52.488;13.460;2022-10-17T01:53:42;4.13;;;2.67;;
16025;SDS011;8117;52.488;13.460;2022-10-17T01:56:12;3.60;;;2.17;;
16025;SDS011;8117;52.488;13.460;2022-10-17T01:58:48;2.73;;;2.23;;
16025;SDS011;8117;52.488;13.460;2022-10-17T02:01:18;4.23;;;2.27;;
16025;SDS011;8117;52.488;13.460;2022-10-17T02:03:52;4.27;;;2.37;;
16025;SDS011;8117;52.488;13.460;2022-10-17T02:06:23;2.93;;;1.93;;
16025;SDS011;8117;52.488;13.460;2022-10-17T02:08:50;4.00;;;2.30;;
16025;SDS011;8117;52.488;13.460;2022-10-17T02:11:19;5.20;;;2.73;;
16025;SDS011;8117;52.488;13.460;2022-10-17T02:16:37;1.73;;;1.40;;
16025;SDS011;8117;52.488;13.460;2022-10-17T02:19:10;1.63;;;1.47;;
16025;SDS011;8117;52.488;13.460;2022-10-17T02:21:48;2.13;;;1.80;;
16025;SDS011;8117;52.488;13.460;2022-10-17T02:24:19;2.83;;;1.73;;
16025;SDS011;8117;52.488;13.460;2022-10-17T02:26:54;1.40;;;1.10;;
16025;SDS011;8117;52.488;13.460;2022-10-17T02:29:24;2.67;;;1.63;;
16025;SDS011;8117;52.488;13.460;2022-10-17T02:31:57;1.87;;;1.60;;
16025;SDS011;8117;52.488;13.460;2022-10-17T02:34:30;2.13;;;1.93;;
16025;SDS011;8117;52.488;13.460;2022-10-17T02:37:01;2.67;;;1.90;;
16025;SDS011;8117;52.488;13.460;2022-10-17T02:39:28;2.57;;;2.00;;
16025;SDS011;8117;52.488;13.460;2022-10-17T02:41:55;3.00;;;1.67;;
16025;SDS011;8117;52.488;13.460;2022-10-17T02:44:24;2.07;;;1.83;;
16025;SDS011;8117;52.488;13.460;2022-10-17T02:46:53;3.40;;;2.27;;
16025;SDS011;8117;52.488;13.460;2022-10-17T02:49:21;2.83;;;2.00;;
16025;SDS011;8117;52.488;13.460;2022-10-17T02:51:51;4.03;;;2.23;;
16025;SDS011;8117;52.488;13.460;2022-10-17T02:54:22;2.73;;;1.83;;
16025;SDS011;8117;52.488;13.460;2022-10-17T02:56:59;3.70;;;2.03;;
16025;SDS011;8117;52.488;13.460;2022-10-17T02:59:28;2.17;;;1.90;;
16025;SDS011;8117;52.488;13.460;2022-10-17T03:01:57;1.53;;;1.40;;
16025;SDS011;8117;52.488;13.460;2022-10-17T03:04:23;2.73;;;1.70;;
16025;SDS011;8117;52.488;13.460;2022-10-17T03:06:52;2.00;;;1.70;;
16025;SDS011;8117;52.488;13.460;2022-10-17T03:09:20;2.63;;;1.87;;
16025;SDS011;8117;52.488;13.460;2022-10-17T03:11:47;2.70;;;1.73;;
16025;SDS011;8117;52.488;13.460;2022-10-17T03:14:16;2.10;;;1.60;;
16025;SDS011;8117;52.488;13.460;2022-10-17T03:16:43;4.27;;;1.70;;
16025;SDS011;8117;52.488;13.460;2022-10-17T03:19:12;1.80;;;1.30;;
16025;SDS011;8117;52.488;13.460;2022-10-17T03:21:40;2.37;;;1.30;;
16025;SDS011;8117;52.488;13.460;2022-10-17T03:24:13;1.53;;;1.40;;
16025;SDS011;8117;52.488;13.460;2022-10-17T03:26:46;1.43;;;1.33;;
16025;SDS011;8117;52.488;13.460;2022-10-17T03:29:13;2.03;;;1.30;;
16025;SDS011;8117;52.488;13.460;2022-10-17T03:31:42;2.50;;;1.67;;
16025;SDS011;8117;52.488;13.460;2022-10-17T03:34:17;2.17;;;1.77;;
16025;SDS011;8117;52.488;13.460;2022-10-17T03:36:48;3.17;;;1.93;;
16025;SDS011;8117;52.488;13.460;2022-10-17T03:39:18;2.40;;;1.50;;
16025;SDS011;8117;52.488;13.460;2022-10-17T03:41:55;1.53;;;1.40;;
16025;SDS011;8117;52.488;13.460;2022-10-17T03:44:22;1.40;;;1.30;;
16025;SDS011;8117;52.488;13.460;2022-10-17T03:46:52;1.60;;;1.50;;
16025;SDS011;8117;52.488;13.460;2022-10-17T03:49:22;2.40;;;1.33;;
16025;SDS011;8117;52.488;13.460;2022-10-17T03:51:50;2.97;;;1.90;;
16025;SDS011;8117;52.488;13.460;2022-10-17T03:54:24;1.77;;;1.40;;
16025;SDS011;8117;52.488;13.460;2022-10-17T03:56:53;2.27;;;1.23;;
16025;SDS011;8117;52.488;13.460;2022-10-17T03:59:24;1.90;;;1.00;;
16025;SDS011;8117;52.488;13.460;2022-10-17T04:01:54;2.00;;;1.80;;
16025;SDS011;8117;52.488;13.460;2022-10-17T04:04:22;1.20;;;1.10;;
16025;SDS011;8117;52.488;13.460;2022-10-17T04:06:50;2.43;;;1.80;;
16025;SDS011;8117;52.488;13.460;2022-10-17T04:09:19;1.60;;;1.47;;
16025;SDS011;8117;52.488;13.460;2022-10-17T04:11:50;1.97;;;1.50;;
16025;SDS011;8117;52.488;13.460;2022-10-17T04:14:27;2.27;;;1.83;;
16025;SDS011;8117;52.488;13.460;2022-10-17T04:16:53;2.43;;;1.20;;
16025;SDS011;8117;52.488;13.460;2022-10-17T04:19:20;4.30;;;2.00;;
16025;SDS011;8117;52.488;13.460;2022-10-17T04:21:50;2.73;;;1.50;;
16025;SDS011;8117;52.488;13.460;2022-10-17T04:24:23;2.07;;;1.27;;
16025;SDS011;8117;52.488;13.460;2022-10-17T04:26:57;1.97;;;1.33;;
16025;SDS011;8117;52.488;13.460;2022-10-17T04:29:29;1.90;;;1.30;;
16025;SDS011;8117;52.488;13.460;2022-10-17T04:31:56;2.43;;;1.80;;
16025;SDS011;8117;52.488;13.460;2022-10-17T04:34:28;1.47;;;1.30;;
16025;SDS011;8117;52.488;13.460;2022-10-17T04:36:58;1.70;;;1.27;;
16025;SDS011;8117;52.488;13.460;2022-10-17T04:45:29;1.50;;;1.33;;
16025;SDS011;8117;52.488;13.460;2022-10-17T04:47:56;1.80;;;1.33;;
16025;SDS011;8117;52.488;13.460;2022-10-17T04:50:26;2.13;;;1.80;;
16025;SDS011;8117;52.488;13.460;2022-10-17T04:52:56;0.80;;;0.80;;
16025;SDS011;8117;52.488;13.460;2022-10-17T04:55:25;2.70;;;1.40;;
16025;SDS011;8117;52.488;13.460;2022-10-17T04:57:55;1.10;;;1.00;;
16025;SDS011;8117;52.488;13.460;2022-10-17T05:00:23;2.17;;;1.40;;
16025;SDS011;8117;52.488;13.460;2022-10-17T05:06:00;2.10;;;1.47;;
16025;SDS011;8117;52.488;13.460;2022-10-17T05:08:31;1.50;;;1.30;;
16025;SDS011;8117;52.488;13.460;2022-10-17T05:21:16;2.20;;;1.20;;
16025;SDS011;8117;52.488;13.460;2022-10-17T05:24:01;1.87;;;1.30;;
16025;SDS011;8117;52.488;13.460;2022-10-17T05:40:47;1.80;;;1.40;;
16025;SDS011;8117;52.488;13.460;2022-10-17T05:43:15;3.40;;;1.80;;
16025;SDS011;8117;52.488;13.460;2022-10-17T05:45:45;2.20;;;1.30;;
16025;SDS011;8117;52.488;13.460;2022-10-17T05:48:15;2.23;;;1.80;;
16025;SDS011;8117;52.488;13.460;2022-10-17T05:50:42;1.30;;;1.20;;
16025;SDS011;8117;52.488;13.460;2022-10-17T05:53:09;1.23;;;1.10;;
16025;SDS011;8117;52.488;13.460;2022-10-17T05:55:35;2.87;;;1.93;;
16025;SDS011;8117;52.488;13.460;2022-10-17T06:00:50;2.80;;;1.90;;
16025;SDS011;8117;52.488;13.460;2022-10-17T06:03:17;1.63;;;1.33;;
16025;SDS011;8117;52.488;13.460;2022-10-17T06:05:47;1.40;;;1.30;;
16025;SDS011;8117;52.488;13.460;2022-10-17T06:08:16;2.67;;;2.10;;
16025;SDS011;8117;52.488;13.460;2022-10-17T06:10:55;1.67;;;1.43;;
16025;SDS011;8117;52.488;13.460;2022-10-17T06:13:23;2.27;;;1.60;;
16025;SDS011;8117;52.488;13.460;2022-10-17T06:15:50;2.27;;;1.43;;
16025;SDS011;8117;52.488;13.460;2022-10-17T06:18:17;2.20;;;2.00;;
16025;SDS011;8117;52.488;13.460;2022-10-17T06:20:44;2.40;;;1.30;;
16025;SDS011;8117;52.488;13.460;2022-10-17T06:23:17;2.13;;;1.33;;
16025;SDS011;8117;52.488;13.460;2022-10-17T06:25:43;1.23;;;1.10;;
16025;SDS011;8117;52.488;13.460;2022-10-17T06:28:10;1.30;;;1.20;;
16025;SDS011;8117;52.488;13.460;2022-10-17T06:30:38;3.33;;;2.60;;
16025;SDS011;8117;52.488;13.460;2022-10-17T06:33:05;1.10;;;1.00;;
16025;SDS011;8117;52.488;13.460;2022-10-17T06:35:32;1.80;;;1.43;;
16025;SDS011;8117;52.488;13.460;2022-10-17T06:37:58;3.00;;;1.83;;
16025;SDS011;8117;52.488;13.460;2022-10-17T06:40:25;1.40;;;1.30;;
16025;SDS011;8117;52.488;13.460;2022-10-17T06:42:52;2.53;;;1.37;;
16025;SDS011;8117;52.488;13.460;2022-10-17T06:45:19;2.40;;;1.77;;
16025;SDS011;8117;52.488;13.460;2022-10-17T06:47:47;1.47;;;1.37;;
16025;SDS011;8117;52.488;13.460;2022-10-17T06:50:16;2.07;;;1.53;;
16025;SDS011;8117;52.488;13.460;2022-10-17T06:52:42;3.37;;;2.13;;
16025;SDS011;8117;52.488;13.460;2022-10-17T06:55:10;2.40;;;1.93;;
16025;SDS011;8117;52.488;13.460;2022-10-17T06:57:38;1.60;;;1.40;;
16025;SDS011;8117;52.488;13.460;2022-10-17T07:00:09;3.57;;;2.07;;
16025;SDS011;8117;52.488;13.460;2022-10-17T07:02:43;1.73;;;1.27;;
16025;SDS011;8117;52.488;13.460;2022-10-17T07:05:14;2.50;;;1.90;;
16025;SDS011;8117;52.488;13.460;2022-10-17T07:07:41;2.40;;;1.70;;
16025;SDS011;8117;52.488;13.460;2022-10-17T07:10:08;2.77;;;1.43;;
16025;SDS011;8117;52.488;13.460;2022-10-17T07:12:36;4.33;;;2.27;;
16025;SDS011;8117;52.488;13.460;2022-10-17T07:15:10;2.30;;;2.07;;
16025;SDS011;8117;52.488;13.460;2022-10-17T07:17:50;3.90;;;1.97;;
16025;SDS011;8117;52.488;13.460;2022-10-17T07:26:36;2.93;;;1.53;;
16025;SDS011;8117;52.488;13.460;2022-10-17T07:29:37;3.13;;;1.83;;
16025;SDS011;8117;52.488;13.460;2022-10-17T07:31:54;4.67;;;2.20;;
16025;SDS011;8117;52.488;13.460;2022-10-17T07:34:22;2.13;;;1.67;;
16025;SDS011;8117;52.488;13.460;2022-10-17T07:36:57;2.43;;;2.23;;
16025;SDS011;8117;52.488;13.460;2022-10-17T07:39:44;2.47;;;1.93;;
16025;SDS011;8117;52.488;13.460;2022-10-17T07:42:16;3.03;;;1.80;;
16025;SDS011;8117;52.488;13.460;2022-10-17T07:44:46;2.10;;;1.40;;
16025;SDS011;8117;52.488;13.460;2022-10-17T07:49:59;4.00;;;2.40;;
16025;SDS011;8117;52.488;13.460;2022-10-17T07:52:29;3.83;;;2.50;;
16025;SDS011;8117;52.488;13.460;2022-10-17T07:54:56;3.43;;;2.30;;
16025;SDS011;8117;52.488;13.460;2022-10-17T07:57:34;2.73;;;2.03;;
16025;SDS011;8117;52.488;13.460;2022-10-17T08:00:04;5.40;;;2.40;;
16025;SDS011;8117;52.488;13.460;2022-10-17T08:02:41;5.70;;;1.77;;
16025;SDS011;8117;52.488;13.460;2022-10-17T08:05:07;5.37;;;2.43;;
16025;SDS011;8117;52.488;13.460;2022-10-17T08:07:41;2.03;;;1.80;;
16025;SDS011;8117;52.488;13.460;2022-10-17T08:10:13;5.30;;;1.40;;
16025;SDS011;8117;52.488;13.460;2022-10-17T08:13:02;2.67;;;1.90;;
16025;SDS011;8117;52.488;13.460;2022-10-17T08:15:31;3.13;;;2.10;;
16025;SDS011;8117;52.488;13.460;2022-10-17T08:17:59;2.37;;;1.73;;
16025;SDS011;8117;52.488;13.460;2022-10-17T08:20:26;2.37;;;1.57;;
16025;SDS011;8117;52.488;13.460;2022-10-17T08:22:55;2.27;;;2.03;;
16025;SDS011;8117;52.488;13.460;2022-10-17T08:25:28;2.93;;;1.87;;
16025;SDS011;8117;52.488;13.460;2022-10-17T08:27:57;2.60;;;1.70;;
16025;SDS011;8117;52.488;13.460;2022-10-17T08:30:28;1.93;;;1.80;;
16025;SDS011;8117;52.488;13.460;2022-10-17T08:32:58;2.43;;;1.57;;
16025;SDS011;8117;52.488;13.460;2022-10-17T08:35:27;2.23;;;1.80;;
16025;SDS011;8117;52.488;13.460;2022-10-17T08:37:55;3.40;;;2.17;;
16025;SDS011;8117;52.488;13.460;2022-10-17T08:40:28;3.20;;;1.90;;
16025;SDS011;8117;52.488;13.460;2022-10-17T08:43:14;2.07;;;1.57;;
16025;SDS011;8117;52.488;13.460;2022-10-17T08:45:50;2.17;;;1.50;;
16025;SDS011;8117;52.488;13.460;2022-10-17T08:48:19;3.03;;;1.77;;
16025;SDS011;8117;52.488;13.460;2022-10-17T08:50:50;2.10;;;1.43;;
16025;SDS011;8117;52.488;13.460;2022-10-17T08:53:23;1.57;;;1.47;;
16025;SDS011;8117;52.488;13.460;2022-10-17T08:55:51;7.50;;;2.30;;
16025;SDS011;8117;52.488;13.460;2022-10-17T08:58:33;1.47;;;1.37;;
16025;SDS011;8117;52.488;13.460;2022-10-17T09:01:31;2.60;;;1.63;;
16025;SDS011;8117;52.488;13.460;2022-10-17T09:04:15;2.63;;;1.30;;
16025;SDS011;8117;52.488;13.460;2022-10-17T09:07:09;1.70;;;1.60;;
16025;SDS011;8117;52.488;13.460;2022-10-17T09:09:48;1.63;;;1.50;;
16025;SDS011;8117;52.488;13.460;2022-10-17T09:12:30;2.23;;;1.73;;
16025;SDS011;8117;52.488;13.460;2022-10-17T09:15:08;2.13;;;1.37;;
16025;SDS011;8117;52.488;13.460;2022-10-17T09:17:50;1.37;;;1.27;;
16025;SDS011;8117;52.488;13.460;2022-10-17T09:20:22;1.43;;;1.03;;
16025;SDS011;8117;52.488;13.460;2022-10-17T09:22:58;2.23;;;1.50;;
16025;SDS011;8117;52.488;13.460;2022-10-17T09:25:42;1.50;;;1.30;;
16025;SDS011;8117;52.488;13.460;2022-10-17T09:28:14;2.83;;;1.47;;
16025;SDS011;8117;52.488;13.460;2022-10-17T09:30:43;1.90;;;1.30;;
16025;SDS011;8117;52.488;13.460;2022-10-17T09:33:24;1.47;;;1.27;;
16025;SDS011;8117;52.488;13.460;2022-10-17T09:36:16;2.23;;;1.50;;
16025;SDS011;8117;52.488;13.460;2022-10-17T09:38:47;2.17;;;1.10;;
16025;SDS011;8117;52.488;13.460;2022-10-17T09:41:33;2.63;;;1.43;;
16025;SDS011;8117;52.488;13.460;2022-10-17T09:44:14;1.77;;;1.47;;
16025;SDS011;8117;52.488;13.460;2022-10-17T09:47:29;1.60;;;1.23;;
16025;SDS011;8117;52.488;13.460;2022-10-17T09:49:59;2.00;;;1.30;;
16025;SDS011;8117;52.488;13.460;2022-10-17T09:52:54;2.03;;;1.37;;
16025;SDS011;8117;52.488;13.460;2022-10-17T09:56:04;1.70;;;1.60;;
16025;SDS011;8117;52.488;13.460;2022-10-17T10:08:46;2.77;;;0.70;;
16025;SDS011;8117;52.488;13.460;2022-10-17T10:11:18;1.10;;;1.00;;
16025;SDS011;8117;52.488;13.460;2022-10-17T10:13:59;2.03;;;1.27;;
16025;SDS011;8117;52.488;13.460;2022-10-17T10:16:58;2.00;;;1.07;;
16025;SDS011;8117;52.488;13.460;2022-10-17T10:19:37;1.50;;;1.40;;
16025;SDS011;8117;52.488;13.460;2022-10-17T10:22:05;1.33;;;1.20;;
16025;SDS011;8117;52.488;13.460;2022-10-17T10:24:38;1.03;;;1.03;;
16025;SDS011;8117;52.488;13.460;2022-10-17T10:27:04;1.20;;;1.03;;
16025;SDS011;8117;52.488;13.460;2022-10-17T10:29:37;1.63;;;1.40;;
16025;SDS011;8117;52.488;13.460;2022-10-17T10:32:06;1.87;;;0.93;;
16025;SDS011;8117;52.488;13.460;2022-10-17T10:34:34;1.50;;;1.40;;
16025;SDS011;8117;52.488;13.460;2022-10-17T10:37:03;2.87;;;1.30;;
16025;SDS011;8117;52.488;13.460;2022-10-17T10:39:36;1.10;;;1.03;;
16025;SDS011;8117;52.488;13.460;2022-10-17T10:42:16;1.67;;;1.40;;
16025;SDS011;8117;52.488;13.460;2022-10-17T10:44:48;1.47;;;1.07;;
16025;SDS011;8117;52.488;13.460;2022-10-17T10:47:17;1.23;;;0.97;;
16025;SDS011;8117;52.488;13.460;2022-10-17T10:49:46;1.33;;;0.80;;
16025;SDS011;8117;52.488;13.460;2022-10-17T10:52:26;1.17;;;0.90;;
16025;SDS011;8117;52.488;13.460;2022-10-17T10:55:12;1.40;;;1.00;;
16025;SDS011;8117;52.488;13.460;2022-10-17T10:57:44;1.08;;;0.77;;
16025;SDS011;8117;52.488;13.460;2022-10-17T11:00:13;1.27;;;0.97;;
16025;SDS011;8117;52.488;13.460;2022-10-17T11:02:43;2.03;;;1.43;;
16025;SDS011;8117;52.488;13.460;2022-10-17T11:05:37;1.90;;;1.07;;
16025;SDS011;8117;52.488;13.460;2022-10-17T11:08:25;1.60;;;0.90;;
16025;SDS011;8117;52.488;13.460;2022-10-17T11:11:32;1.20;;;1.10;;
16025;SDS011;8117;52.488;13.460;2022-10-17T11:14:04;3.63;;;1.50;;
16025;SDS011;8117;52.488;13.460;2022-10-17T11:16:41;0.95;;;0.95;;
16025;SDS011;8117;52.488;13.460;2022-10-17T11:19:17;1.17;;;1.08;;
16025;SDS011;8117;52.488;13.460;2022-10-17T11:21:57;1.25;;;1.15;;
16025;SDS011;8117;52.488;13.460;2022-10-17T11:24:32;0.88;;;0.88;;
16025;SDS011;8117;52.488;13.460;2022-10-17T11:27:05;3.95;;;1.30;;
16025;SDS011;8117;52.488;13.460;2022-10-17T11:29:34;1.70;;;1.25;;
16025;SDS011;8117;52.488;13.460;2022-10-17T11:32:10;2.13;;;0.75;;
16025;SDS011;8117;52.488;13.460;2022-10-17T11:35:29;0.63;;;0.55;;
16025;SDS011;8117;52.488;13.460;2022-10-17T11:38:07;0.88;;;0.77;;
16025;SDS011;8117;52.488;13.460;2022-10-17T11:40:55;1.10;;;1.07;;
16025;SDS011;8117;52.488;13.460;2022-10-17T11:43:29;1.00;;;0.80;;
16025;SDS011;8117;52.488;13.460;2022-10-17T11:48:41;1.05;;;1.00;;
16025;SDS011;8117;52.488;13.460;2022-10-17T11:49:51;1.13;;;0.93;;
16025;SDS011;8117;52.488;13.460;2022-10-17T11:52:26;1.40;;;0.97;;
16025;SDS011;8117;52.488;13.460;2022-10-17T11:54:56;1.23;;;0.70;;
16025;SDS011;8117;52.488;13.460;2022-10-17T11:57:34;0.85;;;0.70;;
16025;SDS011;8117;52.488;13.460;2022-10-17T12:00:16;1.30;;;1.15;;
16025;SDS011;8117;52.488;13.460;2022-10-17T12:02:49;1.50;;;1.20;;
16025;SDS011;8117;52.488;13.460;2022-10-17T12:05:21;2.17;;;1.77;;
16025;SDS011;8117;52.488;13.460;2022-10-17T12:07:53;1.83;;;1.10;;
16025;SDS011;8117;52.488;13.460;2022-10-17T12:10:29;1.85;;;0.93;;
16025;SDS011;8117;52.488;13.460;2022-10-17T12:19:20;1.30;;;1.02;;
16025;SDS011;8117;52.488;13.460;2022-10-17T12:21:58;1.33;;;1.02;;
16025;SDS011;8117;52.488;13.460;2022-10-17T12:24:34;1.48;;;1.23;;
16025;SDS011;8117;52.488;13.460;2022-10-17T12:30:04;4.45;;;1.10;;
16025;SDS011;8117;52.488;13.460;2022-10-17T12:33:00;1.93;;;1.30;;
16025;SDS011;8117;52.488;13.460;2022-10-17T12:35:37;1.55;;;1.17;;
16025;SDS011;8117;52.488;13.460;2022-10-17T12:45:17;0.80;;;0.73;;
16025;SDS011;8117;52.488;13.460;2022-10-17T12:48:12;2.45;;;1.10;;
16025;SDS011;8117;52.488;13.460;2022-10-17T12:53:35;1.50;;;1.40;;
16025;SDS011;8117;52.488;13.460;2022-10-17T12:56:06;1.08;;;0.98;;
16025;SDS011;8117;52.488;13.460;2022-10-17T12:58:35;1.73;;;1.27;;
16025;SDS011;8117;52.488;13.460;2022-10-17T13:01:02;3.78;;;1.20;;
16025;SDS011;8117;52.488;13.460;2022-10-17T13:03:43;2.47;;;1.20;;
16025;SDS011;8117;52.488;13.460;2022-10-17T13:06:21;1.55;;;1.25;;
16025;SDS011;8117;52.488;13.460;2022-10-17T13:09:03;2.38;;;1.55;;
16025;SDS011;8117;52.488;13.460;2022-10-17T13:11:36;1.40;;;1.30;;
16025;SDS011;8117;52.488;13.460;2022-10-17T13:14:24;1.90;;;1.38;;
16025;SDS011;8117;52.488;13.460;2022-10-17T13:17:40;1.25;;;1.00;;
16025;SDS011;8117;52.488;13.460;2022-10-17T13:20:19;1.73;;;1.35;;
16025;SDS011;8117;52.488;13.460;2022-10-17T13:22:55;1.15;;;0.80;;
16025;SDS011;8117;52.488;13.460;2022-10-17T13:25:40;4.97;;;2.28;;
16025;SDS011;8117;52.488;13.460;2022-10-17T13:28:10;1.95;;;1.00;;
16025;SDS011;8117;52.488;13.460;2022-10-17T13:31:00;1.23;;;1.00;;
16025;SDS011;8117;52.488;13.460;2022-10-17T13:33:32;3.33;;;1.45;;
16025;SDS011;8117;52.488;13.460;2022-10-17T13:36:14;1.35;;;0.98;;
16025;SDS011;8117;52.488;13.460;2022-10-17T13:38:43;1.48;;;1.15;;
16025;SDS011;8117;52.488;13.460;2022-10-17T13:41:44;1.73;;;1.08;;
16025;SDS011;8117;52.488;13.460;2022-10-17T13:44:19;1.92;;;1.10;;
16025;SDS011;8117;52.488;13.460;2022-10-17T13:46:52;2.50;;;1.40;;
16025;SDS011;8117;52.488;13.460;2022-10-17T13:49:20;1.27;;;1.00;;
16025;SDS011;8117;52.488;13.460;2022-10-17T13:51:56;3.30;;;1.23;;
16025;SDS011;8117;52.488;13.460;2022-10-17T13:54:34;2.03;;;1.45;;
16025;SDS011;8117;52.488;13.460;2022-10-17T13:57:03;0.80;;;0.73;;
16025;SDS011;8117;52.488;13.460;2022-10-17T13:59:42;0.85;;;0.70;;
16025;SDS011;8117;52.488;13.460;2022-10-17T14:02:26;5.90;;;0.93;;
16025;SDS011;8117;52.488;13.460;2022-10-17T14:08:20;2.17;;;0.75;;
16025;SDS011;8117;52.488;13.460;2022-10-17T14:10:47;0.90;;;0.90;;
16025;SDS011;8117;52.488;13.460;2022-10-17T14:13:23;1.55;;;1.02;;
16025;SDS011;8117;52.488;13.460;2022-10-17T14:16:40;1.10;;;0.93;;
16025;SDS011;8117;52.488;13.460;2022-10-17T14:19:15;1.42;;;0.90;;
16025;SDS011;8117;52.488;13.460;2022-10-17T14:21:52;1.25;;;1.10;;
16025;SDS011;8117;52.488;13.460;2022-10-17T14:24:29;1.52;;;0.90;;
16025;SDS011;8117;52.488;13.460;2022-10-17T14:30:30;3.35;;;1.15;;
16025;SDS011;8117;52.488;13.460;2022-10-17T14:33:10;1.05;;;0.80;;
16025;SDS011;8117;52.488;13.460;2022-10-17T14:37:31;1.58;;;1.02;;
16025;SDS011;8117;52.488;13.460;2022-10-17T15:12:37;1.35;;;1.00;;
16025;SDS011;8117;52.488;13.460;2022-10-17T15:15:17;2.22;;;1.40;;
16025;SDS011;8117;52.488;13.460;2022-10-17T15:28:25;1.33;;;0.90;;
16025;SDS011;8117;52.488;13.460;2022-10-17T15:31:18;1.58;;;0.98;;
16025;SDS011;8117;52.488;13.460;2022-10-17T15:33:56;1.58;;;1.48;;
16025;SDS011;8117;52.488;13.460;2022-10-17T15:36:50;2.90;;;0.90;;
16025;SDS011;8117;52.488;13.460;2022-10-17T15:39:23;2.08;;;0.90;;
16025;SDS011;8117;52.488;13.460;2022-10-17T15:41:52;1.85;;;1.05;;
16025;SDS011;8117;52.488;13.460;2022-10-17T15:44:24;1.70;;;1.02;;
16025;SDS011;8117;52.488;13.460;2022-10-17T15:46:56;2.90;;;1.45;;
16025;SDS011;8117;52.488;13.460;2022-10-17T15:49:34;2.08;;;1.30;;
16025;SDS011;8117;52.488;13.460;2022-10-17T15:52:07;4.63;;;1.40;;
16025;SDS011;8117;52.488;13.460;2022-10-17T15:54:34;3.03;;;1.10;;
16025;SDS011;8117;52.488;13.460;2022-10-17T15:57:03;3.13;;;1.60;;
16025;SDS011;8117;52.488;13.460;2022-10-17T15:59:33;2.38;;;1.52;;
16025;SDS011;8117;52.488;13.460;2022-10-17T16:02:21;2.88;;;1.90;;
16025;SDS011;8117;52.488;13.460;2022-10-17T16:05:14;2.15;;;1.25;;
16025;SDS011;8117;52.488;13.460;2022-10-17T16:07:47;2.30;;;1.77;;
16025;SDS011;8117;52.488;13.460;2022-10-17T16:10:14;1.75;;;0.85;;
16025;SDS011;8117;52.488;13.460;2022-10-17T16:12:43;3.63;;;1.70;;
16025;SDS011;8117;52.488;13.460;2022-10-17T16:15:18;2.28;;;1.42;;
16025;SDS011;8117;52.488;13.460;2022-10-17T16:17:49;3.53;;;1.15;;
16025;SDS011;8117;52.488;13.460;2022-10-17T16:20:21;1.80;;;1.38;;
16025;SDS011;8117;52.488;13.460;2022-10-17T16:22:49;1.08;;;0.75;;
16025;SDS011;8117;52.488;13.460;2022-10-17T16:25:41;1.70;;;1.25;;
16025;SDS011;8117;52.488;13.460;2022-10-17T16:28:29;3.05;;;1.20;;
16025;SDS011;8117;52.488;13.460;2022-10-17T16:34:24;3.65;;;1.05;;
16025;SDS011;8117;52.488;13.460;2022-10-17T16:36:57;2.10;;;1.40;;
16025;SDS011;8117;52.488;13.460;2022-10-17T16:39:33;1.55;;;1.15;;
16025;SDS011;8117;52.488;13.460;2022-10-17T16:42:22;1.33;;;0.85;;
16025;SDS011;8117;52.488;13.460;2022-10-17T16:44:49;1.83;;;1.55;;
16025;SDS011;8117;52.488;13.460;2022-10-17T16:47:37;2.17;;;1.08;;
16025;SDS011;8117;52.488;13.460;2022-10-17T16:50:26;1.75;;;1.25;;
16025;SDS011;8117;52.488;13.460;2022-10-17T16:53:12;2.55;;;0.95;;
16025;SDS011;8117;52.488;13.460;2022-10-17T16:55:45;1.70;;;1.50;;
16025;SDS011;8117;52.488;13.460;2022-10-17T16:58:19;1.50;;;0.90;;
16025;SDS011;8117;52.488;13.460;2022-10-17T17:01:09;1.13;;;0.93;;
16025;SDS011;8117;52.488;13.460;2022-10-17T17:03:44;1.15;;;1.00;;
16025;SDS011;8117;52.488;13.460;2022-10-17T17:06:15;1.38;;;1.20;;
16025;SDS011;8117;52.488;13.460;2022-10-17T17:08:50;2.33;;;1.40;;
16025;SDS011;8117;52.488;13.460;2022-10-17T17:11:23;4.03;;;1.40;;
16025;SDS011;8117;52.488;13.460;2022-10-17T17:14:14;2.55;;;1.17;;
16025;SDS011;8117;52.488;13.460;2022-10-17T17:41:09;3.15;;;1.73;;
16025;SDS011;8117;52.488;13.460;2022-10-17T18:35:09;2.63;;;1.85;;
16025;SDS011;8117;52.488;13.460;2022-10-17T18:37:40;2.28;;;2.08;;
16025;SDS011;8117;52.488;13.460;2022-10-17T18:40:34;2.78;;;1.92;;
16025;SDS011;8117;52.488;13.460;2022-10-17T18:43:18;3.67;;;2.45;;
16025;SDS011;8117;52.488;13.460;2022-10-17T18:45:47;3.78;;;2.10;;
16025;SDS011;8117;52.488;13.460;2022-10-17T18:48:41;3.80;;;2.40;;
16025;SDS011;8117;52.488;13.460;2022-10-17T18:51:27;2.53;;;1.88;;
16025;SDS011;8117;52.488;13.460;2022-10-17T18:54:15;5.17;;;2.40;;
16025;SDS011;8117;52.488;13.460;2022-10-17T18:57:11;2.70;;;2.37;;
16025;SDS011;8117;52.488;13.460;2022-10-17T19:00:23;6.53;;;3.67;;
16025;SDS011;8117;52.488;13.460;2022-10-17T19:02:58;5.97;;;3.50;;
16025;SDS011;8117;52.488;13.460;2022-10-17T19:06:41;4.80;;;2.47;;
16025;SDS011;8117;52.488;13.460;2022-10-17T19:08:40;5.33;;;3.63;;
16025;SDS011;8117;52.488;13.460;2022-10-17T19:11:11;3.97;;;3.20;;
16025;SDS011;8117;52.488;13.460;2022-10-17T19:13:40;3.83;;;2.53;;
16025;SDS011;8117;52.488;13.460;2022-10-17T19:20:13;4.47;;;2.70;;
16025;SDS011;8117;52.488;13.460;2022-10-17T19:25:55;3.57;;;2.73;;
16025;SDS011;8117;52.488;13.460;2022-10-17T19:28:41;4.77;;;3.10;;
16025;SDS011;8117;52.488;13.460;2022-10-17T19:31:34;2.50;;;2.10;;
16025;SDS011;8117;52.488;13.460;2022-10-17T19:34:26;3.70;;;2.60;;